createdAt,value
2019-06-27T03:59:31.392Z,27.07
2019-06-27T04:02:29.626Z,30.62
2019-06-27T04:05:27.607Z,33.23
2019-06-27T04:08:25.180Z,32.73
2019-06-27T04:11:21.874Z,21.05
2019-06-27T04:14:19.031Z,35.05
2019-06-27T04:17:16.547Z,43.70
2019-06-27T04:20:13.144Z,30.80
2019-06-27T04:23:08.708Z,35.55
2019-06-27T04:26:09.733Z,34.78
2019-06-27T04:29:08.673Z,26.68
2019-06-27T04:32:06.812Z,26.75
2019-06-27T04:35:04.370Z,30.17
2019-06-27T04:38:07.601Z,30.35
2019-06-27T04:41:06.472Z,26.65
2019-06-27T04:44:05.406Z,24.57
2019-06-27T04:47:01.638Z,26.68
2019-06-27T04:49:59.016Z,25.52
2019-06-27T04:52:56.578Z,26.40
2019-06-27T04:55:54.691Z,26.65
2019-06-27T04:58:53.109Z,27.07
2019-06-27T05:01:51.135Z,32.58
2019-06-27T05:04:46.347Z,23.95
2019-06-27T05:07:43.100Z,22.27
2019-06-27T05:10:40.595Z,25.37
2019-06-27T05:13:43.526Z,24.55
2019-06-27T05:16:40.380Z,26.55
2019-06-27T05:19:36.188Z,27.10
2019-06-27T05:22:32.972Z,26.93
2019-06-27T05:25:32.629Z,33.60
2019-06-27T05:28:29.091Z,29.48
2019-06-27T05:31:24.789Z,33.45
2019-06-27T05:34:20.724Z,34.10
2019-06-27T05:37:16.785Z,34.30
2019-06-27T05:40:12.412Z,45.70
2019-06-27T05:43:09.786Z,39.88
2019-06-27T05:46:06.205Z,37.03
2019-06-27T05:49:07.322Z,39.13
2019-06-27T05:52:04.930Z,37.35
2019-06-27T05:55:03.866Z,40.60
2019-06-27T05:58:01.537Z,37.90
2019-06-27T06:01:01.014Z,55.17
2019-06-27T06:03:59.537Z,39.35
2019-06-27T06:06:56.974Z,35.28
2019-06-27T06:09:55.622Z,32.00
2019-06-27T06:12:56.676Z,29.12
2019-06-27T06:16:00.852Z,29.70
2019-06-27T06:18:58.787Z,33.25
2019-06-27T06:21:57.961Z,21.27
2019-06-27T06:24:57.928Z,29.45
2019-06-27T06:27:53.237Z,22.58
2019-06-27T06:30:51.148Z,19.10
2019-06-27T06:33:48.301Z,20.08
2019-06-27T06:36:47.257Z,22.00
2019-06-27T06:39:46.204Z,21.07
2019-06-27T06:42:47.206Z,21.42
2019-06-27T06:45:42.402Z,22.50
2019-06-27T06:48:37.611Z,18.60
2019-06-27T06:51:35.351Z,26.62
2019-06-27T06:54:34.591Z,20.55
2019-06-27T06:57:31.728Z,21.42
2019-06-27T07:00:33.557Z,19.50
2019-06-27T07:03:29.521Z,21.85
2019-06-27T07:06:27.419Z,16.60
2019-06-27T07:09:26.207Z,17.90
2019-06-27T07:12:29.376Z,23.32
2019-06-27T07:15:30.732Z,17.92
2019-06-27T07:18:31.099Z,23.10
2019-06-27T07:21:27.218Z,15.65
2019-06-27T07:24:31.375Z,18.20
2019-06-27T07:27:38.041Z,18.35
2019-06-27T07:30:44.771Z,20.77
2019-06-27T07:33:43.710Z,25.05
2019-06-27T07:36:44.543Z,17.85
2019-06-27T07:43:04.102Z,18.90
2019-06-27T07:46:02.513Z,16.52
2019-06-27T07:49:02.275Z,19.15
2019-06-27T07:52:01.506Z,17.95
2019-06-27T07:55:02.277Z,17.30
2019-06-27T08:00:49.813Z,24.23
2019-06-27T08:03:39.145Z,18.75
2019-06-27T08:06:36.593Z,17.45
2019-06-27T08:09:36.099Z,15.78
2019-06-27T08:15:27.267Z,18.48
2019-06-27T08:21:24.114Z,16.67
2019-06-27T08:24:21.690Z,21.82
2019-06-27T08:27:23.710Z,17.92
2019-06-27T08:30:18.937Z,17.00
2019-06-27T08:33:18.745Z,19.32
2019-06-27T08:36:21.468Z,20.40
2019-06-27T08:39:18.205Z,18.15
2019-06-27T08:42:15.691Z,22.00
2019-06-27T08:45:14.214Z,20.12
2019-06-27T08:48:12.511Z,19.48
2019-06-27T08:51:08.555Z,21.30
2019-06-27T08:54:07.498Z,21.97
2019-06-27T08:57:05.129Z,22.85
2019-06-27T09:00:01.412Z,18.70
2019-06-27T09:02:58.650Z,16.32
2019-06-27T09:05:55.627Z,17.17
2019-06-27T09:08:53.262Z,21.10
2019-06-27T09:11:50.935Z,27.93
2019-06-27T09:14:49.497Z,36.38
2019-06-27T09:17:52.727Z,25.97
2019-06-27T09:20:49.396Z,34.60
2019-06-27T09:23:47.267Z,34.18
2019-06-27T09:26:43.193Z,38.88
2019-06-27T09:29:39.579Z,36.90
2019-06-27T09:32:37.016Z,28.52
2019-06-27T09:35:35.569Z,40.33
2019-06-27T09:41:22.328Z,34.88
2019-06-27T09:44:18.047Z,32.53
2019-06-27T09:47:13.913Z,30.35
2019-06-27T09:50:03.081Z,30.35
2019-06-27T09:52:58.383Z,32.25
2019-06-27T09:55:56.992Z,23.52
2019-06-27T09:58:53.454Z,28.62
2019-06-27T10:01:53.050Z,24.90
2019-06-27T10:04:54.318Z,29.65
2019-06-27T10:07:53.654Z,23.77
2019-06-27T10:10:52.742Z,25.30
2019-06-27T10:14:02.024Z,24.18
2019-06-27T10:17:02.086Z,27.55
2019-06-27T10:20:06.176Z,28.60
2019-06-27T10:23:07.724Z,27.05
2019-06-27T10:26:05.718Z,25.65
2019-06-27T10:29:04.040Z,32.35
2019-06-27T10:32:01.431Z,39.95
2019-06-27T10:37:50.034Z,32.50
2019-06-27T10:40:46.204Z,37.65
2019-06-27T10:43:43.155Z,30.77
2019-06-27T10:46:41.371Z,39.67
2019-06-27T10:49:37.942Z,34.78
2019-06-27T10:52:38.957Z,27.25
2019-06-27T10:55:38.462Z,34.55
2019-06-27T10:58:37.736Z,29.23
2019-06-27T11:01:34.837Z,38.92
2019-06-27T11:04:32.431Z,30.08
2019-06-27T11:07:28.944Z,30.72
2019-06-27T11:16:03.306Z,23.90
2019-06-27T11:19:00.502Z,27.17
2019-06-27T11:21:58.880Z,23.80
2019-06-27T11:24:56.681Z,31.17
2019-06-27T11:27:53.991Z,33.75
2019-06-27T11:30:50.913Z,34.23
2019-06-27T11:33:48.483Z,35.95
2019-06-27T11:36:47.423Z,28.27
2019-06-27T11:39:43.752Z,37.20
2019-06-27T11:42:40.505Z,33.75
2019-06-27T11:45:37.595Z,34.95
2019-06-27T11:48:28.662Z,39.78
2019-06-27T11:51:25.908Z,30.05
2019-06-27T11:54:22.711Z,29.48
2019-06-27T11:57:18.680Z,29.77
2019-06-27T12:00:17.599Z,37.08
2019-06-27T12:03:15.447Z,27.15
2019-06-27T12:06:13.073Z,29.60
2019-06-27T12:09:11.412Z,24.43
2019-06-27T12:12:09.173Z,28.27
2019-06-27T12:15:04.484Z,28.98
2019-06-27T12:18:02.861Z,28.70
2019-06-27T12:21:06.278Z,21.35
2019-06-27T12:24:03.634Z,29.95
2019-06-27T12:27:01.186Z,21.15
2019-06-27T12:29:58.929Z,28.23
2019-06-27T12:32:56.686Z,27.82
2019-06-27T12:35:53.155Z,32.50
2019-06-27T12:38:50.215Z,33.20
2019-06-27T12:41:46.897Z,28.75
2019-06-27T12:44:44.903Z,26.10
2019-06-27T12:47:44.402Z,28.20
2019-06-27T12:50:42.918Z,27.60
2019-06-27T12:53:40.302Z,27.60
2019-06-27T12:56:39.077Z,29.10
2019-06-27T12:59:39.806Z,32.67
2019-06-27T13:02:36.661Z,27.40
2019-06-27T13:05:36.270Z,27.80
2019-06-27T13:08:35.043Z,28.73
2019-06-27T13:11:32.094Z,31.57
2019-06-27T13:14:31.384Z,36.85
2019-06-27T13:17:30.424Z,29.82
2019-06-27T13:20:30.281Z,33.95
2019-06-27T13:23:33.695Z,37.83
2019-06-27T13:26:30.502Z,35.85
2019-06-27T13:29:28.950Z,28.50
2019-06-27T13:32:25.578Z,37.48
2019-06-27T13:35:24.317Z,31.62
2019-06-27T13:38:21.602Z,34.65
2019-06-27T13:41:19.428Z,35.73
2019-06-27T13:44:19.383Z,39.20
2019-06-27T13:47:16.054Z,34.25
2019-06-27T13:50:14.268Z,42.95
2019-06-27T13:53:12.823Z,36.65
2019-06-27T13:56:11.377Z,46.53
2019-06-27T13:59:08.816Z,34.58
2019-06-27T14:02:03.610Z,43.45
2019-06-27T14:04:59.790Z,35.08
2019-06-27T14:07:56.747Z,36.10
2019-06-27T14:10:53.527Z,40.98
2019-06-27T14:13:50.421Z,35.08
2019-06-27T14:16:47.696Z,27.32
2019-06-27T14:19:45.313Z,34.20
2019-06-27T14:22:44.360Z,28.47
2019-06-27T14:25:45.612Z,32.25
2019-06-27T14:28:42.977Z,30.27
